Time;durP1;ratioP1;P1;durP2;ratioP2;P2;SDS_P1;SDS_P2;PMS_P1;PMS_P2;Temp;Humidity;BMP_temperature;BMP_pressure;BME280_temperature;BME280_humidity;BME280_pressure;Samples;Min_cycle;Max_cycle;Signal;HPM_P1;HPM_P2
2021/04/16 00:01:25;;;;;;;6.63;4.30;;;;;;;7.31;44.14;99932.53;5051296;28;20021;-37
2021/04/16 00:03:50;;;;;;;6.32;4.13;;;;;;;7.22;43.89;99938.91;5049778;28;20013;-38
2021/04/16 00:06:16;;;;;;;8.05;4.03;;;;;;;7.19;44.03;99939.22;5051466;28;20017;-38
2021/04/16 00:08:41;;;;;;;7.90;4.53;;;;;;;7.10;44.36;99917.31;5051277;28;20405;-37
2021/04/16 00:11:11;;;;;;;7.85;4.63;;;;;;;7.09;44.29;99936.81;5051041;28;20045;-38
2021/04/16 00:13:37;;;;;;;7.28;4.72;;;;;;;7.27;43.74;99939.16;5050795;28;20025;-38
2021/04/16 00:16:05;;;;;;;6.03;4.32;;;;;;;7.15;43.67;99937.94;5050947;28;20032;-37
2021/04/16 00:18:31;;;;;;;6.32;4.40;;;;;;;7.35;43.46;99936.47;5050925;28;20028;-42
2021/04/16 00:20:57;;;;;;;6.93;4.38;;;;;;;7.24;43.86;99940.34;5050588;28;20061;-37
2021/04/16 00:23:22;;;;;;;6.93;4.45;;;;;;;7.35;43.59;99938.28;5050767;28;20164;-37
2021/04/16 00:25:48;;;;;;;5.78;4.28;;;;;;;7.27;43.46;99952.41;5050935;28;20064;-37
2021/04/16 00:28:14;;;;;;;6.28;4.53;;;;;;;7.13;44.31;99947.88;5050706;28;20200;-37
2021/04/16 00:30:50;;;;;;;7.80;4.53;;;;;;;7.22;44.01;99949.47;5049208;28;20067;-37
2021/04/16 00:33:16;;;;;;;5.93;4.30;;;;;;;7.10;43.89;99948.22;5050844;28;20421;-37
2021/04/16 00:35:42;;;;;;;6.30;4.40;;;;;;;7.19;43.96;99950.63;5050437;28;20542;-38
2021/04/16 00:38:07;;;;;;;6.30;4.30;;;;;;;7.31;43.56;99948.44;5050717;28;20032;-38
2021/04/16 00:40:37;;;;;;;6.38;4.63;;;;;;;7.19;43.83;99949.81;5050520;28;20021;-38
2021/04/16 00:43:03;;;;;;;;;;;;;;;6.87;44.13;99949.03;5050946;28;20449;-38
2021/04/16 00:45:29;;;;;;;5.93;4.28;;;;;;;6.90;44.38;99959.28;5050427;28;19908;-38
2021/04/16 00:47:56;;;;;;;5.85;4.32;;;;;;;6.97;44.22;99956.75;5050236;28;20053;-38
2021/04/16 00:50:25;;;;;;;8.00;4.63;;;;;;;7.00;44.26;99951.09;5032599;28;20040;-38
2021/04/16 00:52:51;;;;;;;7.05;4.43;;;;;;;6.97;44.42;99956.75;5050266;28;20067;-38
2021/04/16 00:55:18;;;;;;;7.22;4.40;;;;;;;7.13;44.20;99953.19;5032154;28;20033;-37
2021/04/16 00:57:43;;;;;;;6.80;4.60;;;;;;;6.88;44.24;99953.34;5048910;28;20396;-38
2021/04/16 01:00:10;;;;;;;7.05;4.72;;;;;;;6.99;44.45;99958.22;5032300;28;20127;-37
2021/04/16 01:02:35;;;;;;;7.70;4.50;;;;;;;6.92;43.93;99959.91;5050235;28;20100;-38
2021/04/16 01:05:01;;;;;;;6.30;4.50;;;;;;;7.04;44.14;99960.34;5050028;28;20024;-37
2021/04/16 01:07:28;;;;;;;6.00;4.53;;;;;;;7.09;43.54;99965.94;5050081;28;20108;-37
2021/04/16 01:09:54;;;;;;;9.38;4.82;;;;;;;7.07;43.69;99956.53;5050375;28;20041;-38
2021/04/16 01:12:19;;;;;;;7.47;4.53;;;;;;;6.76;44.61;99960.84;5032763;28;20025;-38
2021/04/16 01:14:46;;;;;;;6.75;4.78;;;;;;;6.90;44.23;99961.09;5050679;28;20021;-38
2021/04/16 01:17:13;;;;;;;8.07;4.88;;;;;;;6.95;44.35;99956.09;5049260;28;20032;-37
2021/04/16 01:19:52;;;;;;;6.65;4.70;;;;;;;7.04;43.92;99953.25;5049080;28;20480;-37
2021/04/16 01:22:30;;;;;;;5.97;4.47;;;;;;;6.80;44.69;99966.63;5032641;28;20058;-37
2021/04/16 01:24:57;;;;;;;6.53;4.68;;;;;;;6.56;45.49;99962.25;5048926;28;20067;-38
2021/04/16 01:27:23;;;;;;;7.07;4.60;;;;;;;6.68;44.64;99962.69;5048736;28;20036;-38
2021/04/16 01:29:49;;;;;;;8.88;4.90;;;;;;;6.49;45.69;99959.44;5050301;28;20114;-38
2021/04/16 01:32:26;;;;;;;7.07;4.40;;;;;;;6.56;45.04;99960.41;5050051;28;20021;-38
2021/04/16 01:34:52;;;;;;;6.35;4.85;;;;;;;6.63;45.14;99955.28;5049895;28;20025;-38
2021/04/16 01:37:17;;;;;;;7.95;4.63;;;;;;;6.44;45.57;99959.97;5050614;28;20032;-38
2021/04/16 01:39:43;;;;;;;7.32;4.80;;;;;;;6.32;45.83;99950.78;5049934;28;20033;-38
2021/04/16 01:42:08;;;;;;;8.15;4.78;;;;;;;6.54;45.15;99951.03;5050140;28;20051;-37
2021/04/16 01:44:33;;;;;;;9.80;5.05;;;;;;;6.33;45.67;99951.59;5050044;28;20021;-37
2021/04/16 01:47:07;;;;;;;6.53;4.78;;;;;;;6.25;46.24;99963.03;5050394;28;20028;-38
2021/04/16 01:49:37;;;;;;;7.65;4.75;;;;;;;6.41;45.78;99951.56;5050361;28;20100;-38
2021/04/16 01:52:04;;;;;;;8.82;5.18;;;;;;;6.16;46.04;99949.00;5050295;28;20029;-38
2021/04/16 01:54:36;;;;;;;6.68;4.65;;;;;;;6.17;46.33;99950.66;5049603;28;20021;-38
2021/04/16 01:57:13;;;;;;;7.93;5.03;;;;;;;6.30;46.05;99951.94;5049765;28;20053;-37
2021/04/16 01:59:39;;;;;;;7.15;5.05;;;;;;;6.23;46.49;99941.22;5049861;28;20020;-36
2021/04/16 02:02:06;;;;;;;7.00;5.03;;;;;;;6.35;46.06;99954.91;5049919;28;20053;-38
2021/04/16 02:04:31;;;;;;;7.00;4.70;;;;;;;6.67;46.10;99953.94;5050307;28;20540;-37
2021/04/16 02:06:57;;;;;;;7.93;4.88;;;;;;;6.21;45.93;99928.19;5050031;28;20029;-38
2021/04/16 02:09:28;;;;;;;7.13;4.65;;;;;;;6.25;46.44;99963.84;5049879;28;20053;-37
2021/04/16 02:11:53;;;;;;;7.15;4.95;;;;;;;6.37;46.41;99958.19;5049981;28;20033;-37
2021/04/16 02:14:25;;;;;;;7.57;4.82;;;;;;;6.32;46.60;99952.59;5049621;28;20075;-39
2021/04/16 02:16:53;;;;;;;8.93;5.20;;;;;;;6.22;47.00;99961.53;5050247;28;20064;-38
2021/04/16 02:19:19;;;;;;;7.45;5.20;;;;;;;6.28;46.83;99962.66;5049153;28;20453;-37
2021/04/16 02:21:44;;;;;;;7.18;5.05;;;;;;;6.18;47.20;99962.88;5053775;28;20036;-37
2021/04/16 02:24:11;;;;;;;9.98;4.82;;;;;;;6.37;46.79;99961.66;5053758;28;20048;-37
2021/04/16 02:26:36;;;;;;;6.95;4.80;;;;;;;6.33;47.25;99970.94;5053797;28;20384;-37
2021/04/16 02:29:06;;;;;;;9.98;5.90;;;;;;;6.53;47.19;99974.00;5053724;28;20029;-37
2021/04/16 02:31:32;;;;;;;9.07;5.47;;;;;;;6.59;46.81;99959.28;5053051;28;20032;-38
2021/04/16 02:33:57;;;;;;;9.48;5.53;;;;;;;6.34;46.74;99969.09;5052784;28;20029;-37
2021/04/16 02:36:24;;;;;;;8.02;4.97;;;;;;;6.04;48.09;99976.78;5053175;28;20033;-37
2021/04/16 02:38:53;;;;;;;8.73;5.47;;;;;;;6.12;48.03;99974.13;5053139;28;20424;-37
2021/04/16 02:41:19;;;;;;;8.15;5.65;;;;;;;6.40;47.41;99971.91;5053617;28;20033;-37
2021/04/16 02:43:44;;;;;;;10.20;6.15;;;;;;;6.30;48.09;99967.78;5053397;28;20036;-38
2021/04/16 02:46:10;;;;;;;7.97;5.35;;;;;;;6.04;48.12;99969.69;5052948;28;20036;-38
2021/04/16 02:48:35;;;;;;;13.02;5.45;;;;;;;6.23;47.68;99960.56;5053105;28;20025;-38
2021/04/16 02:51:00;;;;;;;11.32;5.80;;;;;;;6.18;47.73;99962.06;5053186;28;20404;-38
2021/04/16 02:53:26;;;;;;;8.38;5.63;;;;;;;6.12;48.12;99968.03;5053229;28;20032;-37
2021/04/16 02:55:51;;;;;;;8.75;5.90;;;;;;;6.14;47.40;99966.03;5053253;28;20131;-37
2021/04/16 02:58:17;;;;;;;10.07;5.90;;;;;;;6.09;47.03;99961.22;5053108;28;20029;-37
2021/04/16 03:00:42;;;;;;;8.57;5.30;;;;;;;6.30;46.27;99965.97;5052656;28;20449;-38
2021/04/16 03:03:08;;;;;;;8.65;5.15;;;;;;;6.04;47.44;99979.44;5051827;28;20361;-38
2021/04/16 03:05:33;;;;;;;15.07;8.93;;;;;;;6.25;46.91;99985.00;5052963;28;20032;-38
2021/04/16 03:07:59;;;;;;;9.23;6.28;;;;;;;6.28;46.17;99988.28;5052753;28;20029;-38
2021/04/16 03:10:30;;;;;;;14.85;8.85;;;;;;;6.10;46.46;99985.88;5052766;28;20060;-37
2021/04/16 03:12:55;;;;;;;10.35;5.97;;;;;;;6.24;46.02;99983.34;5052848;28;20063;-38
2021/04/16 03:15:21;;;;;;;8.10;5.50;;;;;;;6.46;45.71;99983.59;5052631;28;20029;-37
2021/04/16 03:17:47;;;;;;;7.15;5.25;;;;;;;6.45;46.16;99981.94;5052724;28;20063;-37
2021/04/16 03:20:12;;;;;;;8.88;5.30;;;;;;;6.55;45.88;99981.75;5052652;28;20500;-37
2021/04/16 03:22:38;;;;;;;7.97;5.13;;;;;;;6.55;45.48;99987.03;5052726;28;20421;-37
2021/04/16 03:25:05;;;;;;;6.78;4.57;;;;;;;6.28;46.07;99994.38;5041695;28;20018;-37
2021/04/16 03:27:31;;;;;;;9.00;4.88;;;;;;;6.29;46.21;99989.94;5032351;28;20025;-37
2021/04/16 03:29:56;;;;;;;7.40;5.07;;;;;;;6.29;45.85;99995.22;5032482;28;20037;-37
2021/04/16 03:32:22;;;;;;;8.82;4.75;;;;;;;6.22;45.93;99984.50;5031418;28;20033;-37
2021/04/16 03:34:47;;;;;;;6.80;4.65;;;;;;;6.36;46.16;99994.38;5032548;28;20115;-38
2021/04/16 03:37:12;;;;;;;32.75;17.83;;;;;;;6.23;45.93;99986.97;5032199;28;20021;-38
2021/04/16 03:39:38;;;;;;;9.00;5.75;;;;;;;6.26;45.81;99996.38;5031764;28;20469;-37
2021/04/16 03:42:03;;;;;;;6.95;4.90;;;;;;;6.39;45.74;100006.44;5031667;28;20025;-38
2021/04/16 03:44:29;;;;;;;8.43;4.93;;;;;;;6.37;45.47;99993.38;5043142;28;20029;-38
2021/04/16 03:46:54;;;;;;;8.00;5.03;;;;;;;6.35;45.64;99992.72;5047814;28;20020;-38
2021/04/16 03:49:20;;;;;;;9.55;5.13;;;;;;;6.39;45.44;100003.78;5032329;28;20038;-37
2021/04/16 03:51:49;;;;;;;11.48;5.57;;;;;;;6.52;45.77;99995.31;5048603;28;20071;-52
2021/04/16 03:54:15;;;;;;;8.02;5.35;;;;;;;6.21;46.02;99986.31;5050982;28;20121;-51
2021/04/16 03:56:40;;;;;;;9.32;4.95;;;;;;;6.36;45.66;99996.19;5051003;28;20440;-49
2021/04/16 03:59:06;;;;;;;9.25;5.50;;;;;;;6.29;45.60;99996.06;5050860;28;20017;-48
2021/04/16 04:01:31;;;;;;;10.60;5.28;;;;;;;6.20;45.76;99997.06;5048078;28;20013;-52
2021/04/16 04:03:57;;;;;;;7.22;5.00;;;;;;;6.30;45.49;99999.50;5028860;28;20059;-49
2021/04/16 04:06:22;;;;;;;7.97;5.00;;;;;;;6.36;45.38;99994.38;5030932;28;20068;-51
2021/04/16 04:08:48;;;;;;;6.75;5.03;;;;;;;6.63;44.48;100002.88;5031077;28;20037;-49
2021/04/16 04:11:13;;;;;;;7.93;5.15;;;;;;;6.61;44.82;100000.41;5029265;28;20045;-50
2021/04/16 04:13:38;;;;;;;8.32;5.45;;;;;;;6.99;44.39;100002.41;5030408;28;20033;-49
2021/04/16 04:16:04;;;;;;;8.88;5.32;;;;;;;7.01;44.25;100003.84;5029451;28;20418;-52
2021/04/16 04:18:30;;;;;;;10.55;6.20;;;;;;;7.53;43.76;100007.66;5029347;28;20443;-52
2021/04/16 04:20:55;;;;;;;18.65;9.60;;;;;;;7.55;43.45;100010.94;5029217;28;20098;-52
2021/04/16 04:23:21;;;;;;;14.60;5.80;;;;;;;7.61;42.75;100004.13;5029390;28;20613;-49
2021/04/16 04:25:46;;;;;;;7.65;5.40;;;;;;;7.94;42.22;100011.78;5028196;28;20096;-52
2021/04/16 04:28:11;;;;;;;7.65;5.40;;;;;;;7.87;42.06;100014.34;5029474;28;20151;-51
2021/04/16 04:30:37;;;;;;;9.40;5.70;;;;;;;7.99;41.92;100020.03;5029370;28;20066;-51
2021/04/16 04:33:04;;;;;;;8.85;5.53;;;;;;;8.22;41.60;100009.38;5030594;28;20037;-49
2021/04/16 04:35:30;;;;;;;7.95;5.25;;;;;;;8.81;41.81;100019.16;5032707;28;20120;-51
2021/04/16 04:37:55;;;;;;;12.52;5.72;;;;;;;8.94;40.65;100026.47;5039067;28;20104;-51
2021/04/16 04:40:22;;;;;;;9.13;5.82;;;;;;;9.12;39.90;100031.38;5028693;28;20121;-52
2021/04/16 04:42:47;;;;;;;8.18;5.75;;;;;;;9.53;39.95;100039.59;5029784;28;20030;-49
2021/04/16 04:45:13;;;;;;;9.73;4.90;;;;;;;11.39;46.71;100039.13;5028712;28;20026;-52
2021/04/16 04:47:39;;;;;;;7.53;5.40;;;;;;;12.33;39.83;100045.34;5036333;28;20029;-50
2021/04/16 04:50:06;;;;;;;10.75;5.32;;;;;;;12.84;42.85;100041.13;5038634;28;20327;-49
2021/04/16 04:52:32;;;;;;;7.88;5.63;;;;;;;12.67;41.02;100032.75;5040687;28;20021;-50
2021/04/16 04:55:00;;;;;;;7.80;5.55;;;;;;;13.66;36.08;100038.69;5038200;28;20033;-49
2021/04/16 04:57:26;;;;;;;12.18;5.95;;;;;;;14.16;39.67;100041.34;5046146;28;20029;-50
2021/04/16 04:59:52;;;;;;;10.07;5.53;;;;;;;13.76;36.28;100046.22;5041821;28;20021;-51
2021/04/16 05:02:19;;;;;;;7.53;5.30;;;;;;;13.61;34.52;100038.50;5038265;28;20029;-49
2021/04/16 05:04:44;;;;;;;9.40;5.80;;;;;;;13.65;34.63;100045.88;5041774;28;20033;-37
2021/04/16 05:07:10;;;;;;;7.55;5.40;;;;;;;13.76;33.14;100032.84;5040301;28;20099;-38
2021/04/16 05:09:35;;;;;;;10.77;7.35;;;;;;;13.69;32.45;100041.75;5038495;28;20043;-38
2021/04/16 05:12:01;;;;;;;8.48;6.03;;;;;;;13.42;33.06;100040.25;5038754;28;20363;-38
2021/04/16 05:14:26;;;;;;;11.52;7.45;;;;;;;13.22;33.03;100038.50;5039907;28;20036;-39
2021/04/16 05:16:52;;;;;;;9.10;5.65;;;;;;;12.97;34.52;100037.59;5038225;28;20025;-38
2021/04/16 05:19:18;;;;;;;8.73;5.88;;;;;;;12.88;34.07;100043.16;5039117;28;20029;-39
2021/04/16 05:21:43;;;;;;;8.20;5.43;;;;;;;13.09;33.03;100039.38;5039365;28;20031;-52
2021/04/16 05:24:10;;;;;;;8.35;5.60;;;;;;;13.04;33.36;100038.38;5037693;28;20104;-39
2021/04/16 05:26:35;;;;;;;8.75;5.47;;;;;;;13.43;33.50;100042.72;5041062;28;20025;-50
2021/04/16 05:29:01;;;;;;;11.18;5.35;;;;;;;13.27;33.42;100041.34;5037356;28;20025;-52
2021/04/16 05:31:26;;;;;;;8.98;5.13;;;;;;;13.91;32.28;100046.72;5039132;28;20029;-51
2021/04/16 05:33:52;;;;;;;8.75;5.40;;;;;;;14.60;31.70;100050.25;5034902;28;20029;-38
2021/04/16 05:36:18;;;;;;;13.38;5.88;;;;;;;14.69;31.26;100033.88;5040143;28;20014;-49
2021/04/16 05:38:43;;;;;;;9.73;5.45;;;;;;;14.05;32.46;100047.41;5038238;28;20036;-51
2021/04/16 05:41:08;;;;;;;7.25;5.15;;;;;;;14.83;30.78;100046.91;5039487;28;20028;-51
2021/04/16 05:43:34;;;;;;;8.93;5.60;;;;;;;13.69;32.34;100044.41;5039999;28;20023;-48
2021/04/16 05:46:00;;;;;;;9.55;5.53;;;;;;;13.09;33.34;100047.38;5042422;28;20119;-49
2021/04/16 05:48:26;;;;;;;8.90;6.00;;;;;;;13.38;33.26;100050.56;5049169;28;20020;-50
2021/04/16 05:50:51;;;;;;;9.32;5.43;;;;;;;13.52;32.81;100048.66;5049198;28;20029;-51
2021/04/16 05:53:17;;;;;;;10.18;5.45;;;;;;;13.80;32.26;100055.44;5049110;28;20047;-49
2021/04/16 05:55:42;;;;;;;11.60;5.60;;;;;;;13.60;32.27;100050.25;5051839;28;20094;-52
2021/04/16 05:58:08;;;;;;;7.22;5.50;;;;;;;13.44;32.58;100048.88;5053373;28;20083;-50
2021/04/16 06:00:33;;;;;;;11.45;5.22;;;;;;;13.46;33.01;100052.16;5053269;28;20644;-48
2021/04/16 06:02:59;;;;;;;7.15;5.30;;;;;;;13.68;32.81;100048.09;5053535;28;20111;-48
2021/04/16 06:05:24;;;;;;;10.23;5.20;;;;;;;14.03;31.83;100047.66;5053365;28;20033;-48
2021/04/16 06:07:54;;;;;;;9.98;5.38;;;;;;;14.52;31.67;100052.34;5053492;28;20460;-51
2021/04/16 06:10:20;;;;;;;10.25;5.60;;;;;;;14.29;31.69;100043.09;5052842;28;20429;-49
2021/04/16 06:12:46;;;;;;;9.00;5.95;;;;;;;14.46;31.79;100043.34;5052105;28;20035;-49
2021/04/16 06:15:14;;;;;;;10.68;6.57;;;;;;;14.75;30.95;100033.78;5052888;28;20029;-50
2021/04/16 06:17:39;;;;;;;9.65;5.40;;;;;;;14.37;31.57;100036.63;5052109;28;20044;-49
2021/04/16 06:20:06;;;;;;;9.60;5.50;;;;;;;14.10;31.49;100046.78;5045869;28;20036;-48
2021/04/16 06:22:31;;;;;;;8.27;5.63;;;;;;;14.42;31.32;100042.97;5051500;28;20033;-53
2021/04/16 06:24:57;;;;;;;8.02;5.50;;;;;;;15.86;30.17;100044.28;5052960;28;20017;-51
2021/04/16 06:27:22;;;;;;;10.30;5.07;;;;;;;15.62;30.34;100049.56;5053034;28;20032;-51
2021/04/16 06:29:48;;;;;;;8.15;5.00;;;;;;;15.80;29.43;100045.19;5049864;28;20461;-51
2021/04/16 06:32:14;;;;;;;10.48;5.07;;;;;;;15.82;29.41;100048.44;5053228;28;20024;-51
2021/04/16 06:34:40;;;;;;;7.60;4.90;;;;;;;15.36;29.24;100042.69;5051746;28;20025;-52
2021/04/16 06:37:05;;;;;;;8.13;5.28;;;;;;;16.09;29.27;100045.34;5047052;28;20115;-53
2021/04/16 06:39:31;;;;;;;11.02;5.60;;;;;;;16.88;27.99;100031.53;5043316;28;20480;-52
2021/04/16 06:41:56;;;;;;;13.88;5.80;;;;;;;16.90;28.41;100024.03;5042264;28;20025;-53
2021/04/16 06:44:24;;;;;;;11.55;5.60;;;;;;;17.58;27.31;100033.94;5040693;28;20029;-53
2021/04/16 06:46:53;;;;;;;7.13;4.70;;;;;;;17.54;26.93;100034.66;5025364;28;20071;-53
2021/04/16 06:49:29;;;;;;;7.43;5.70;;;;;;;18.24;26.43;100033.41;5040637;28;20036;-52
2021/04/16 06:52:10;;;;;;;7.78;4.50;;;;;;;17.97;25.94;100025.16;5041395;28;20044;-52
2021/04/16 06:55:01;;;;;;;6.43;3.95;;;;;;;17.30;26.07;100029.38;5023702;28;20081;-52
2021/04/16 06:57:49;;;;;;;6.22;4.50;;;;;;;18.25;26.23;100047.69;5042809;28;20025;-51
2021/04/16 07:00:49;;;;;;;7.57;4.30;;;;;;;17.97;26.04;100046.69;5040835;28;20072;-52
2021/04/16 07:03:25;;;;;;;6.28;4.20;;;;;;;17.90;26.14;100049.56;5041162;28;20378;-52
2021/04/16 07:05:52;;;;;;;6.13;4.35;;;;;;;17.96;26.32;100058.56;5037280;28;20028;-51
2021/04/16 07:08:36;;;;;;;6.68;4.63;;;;;;;17.62;26.07;100047.72;5033525;28;20134;-50
2021/04/16 07:11:02;;;;;;;7.20;4.30;;;;;;;18.17;26.26;100054.31;5042065;28;20121;-53
2021/04/16 07:14:02;;;;;;;6.28;4.30;;;;;;;18.11;25.72;100055.28;5039255;28;20405;-49
2021/04/16 07:16:28;;;;;;;6.20;4.00;;;;;;;18.83;25.13;100054.44;5039762;28;20531;-52
2021/04/16 07:18:54;;;;;;;5.28;3.95;;;;;;;18.26;24.80;100060.91;5030946;28;20025;-50
2021/04/16 07:21:24;;;;;;;6.82;4.15;;;;;;;18.40;24.51;100049.78;5030374;28;20028;-52
2021/04/16 07:24:03;;;;;;;6.35;4.35;;;;;;;19.69;23.65;100045.66;5041350;28;20380;-50
2021/04/16 07:26:49;;;;;;;7.57;4.28;;;;;;;19.67;23.64;100055.91;5041005;28;20465;-51
2021/04/16 07:29:39;;;;;;;6.93;4.00;;;;;;;19.85;23.31;100043.09;5041737;28;20405;-38
2021/04/16 07:32:05;;;;;;;7.53;4.68;;;;;;;18.47;24.14;100055.81;5037746;28;20095;-38
2021/04/16 07:34:37;;;;;;;7.32;4.40;;;;;;;18.68;24.44;100055.03;5041740;28;20026;-39
2021/04/16 07:37:13;;;;;;;7.93;4.88;;;;;;;18.79;24.09;100061.38;5039335;28;20032;-38
2021/04/16 07:39:46;;;;;;;7.13;4.53;;;;;;;19.58;23.75;100053.91;5042013;28;20151;-39
2021/04/16 07:42:20;;;;;;;8.57;4.55;;;;;;;19.05;24.11;100049.03;5041325;28;20056;-51
2021/04/16 07:45:06;;;;;;;6.63;4.05;;;;;;;19.41;23.65;100056.72;5040640;28;20088;-51
2021/04/16 07:47:32;;;;;;;6.55;4.30;;;;;;;18.49;24.72;100059.88;5041049;28;20059;-51
2021/04/16 07:50:31;;;;;;;7.10;5.25;;;;;;;19.51;24.02;100054.94;5041101;28;20020;-52
2021/04/16 07:52:56;;;;;;;6.10;4.25;;;;;;;20.08;22.87;100050.03;5037287;28;20037;-52
2021/04/16 07:55:22;;;;;;;9.32;7.13;;;;;;;20.03;23.50;100047.28;5040833;28;20054;-51
2021/04/16 07:57:50;;;;;;;6.70;5.40;;;;;;;20.77;22.62;100054.56;5041337;28;20029;-52
2021/04/16 08:00:22;;;;;;;6.45;4.57;;;;;;;21.28;22.48;100048.50;5040046;28;20021;-50
2021/04/16 08:03:14;;;;;;;8.38;4.53;;;;;;;21.16;22.10;100045.22;5039858;28;20172;-51
2021/04/16 08:05:40;;;;;;;7.57;4.30;;;;;;;19.75;23.39;100053.84;5036751;28;20503;-51
2021/04/16 08:08:18;;;;;;;6.22;4.30;;;;;;;19.79;23.44;100057.66;5043714;28;20092;-51
2021/04/16 08:11:05;;;;;;;6.70;4.20;;;;;;;20.33;22.99;100044.00;5039379;28;20045;-51
2021/04/16 08:13:32;;;;;;;6.22;4.32;;;;;;;20.29;22.48;100051.78;5040528;28;20132;-50
2021/04/16 08:16:20;;;;;;;7.72;4.35;;;;;;;19.34;23.43;100051.50;5047823;28;20033;-52
2021/04/16 08:19:05;;;;;;;5.65;3.90;;;;;;;19.99;22.75;100043.47;5050151;28;20033;-52
2021/04/16 08:21:36;;;;;;;7.85;4.03;;;;;;;20.16;22.28;100038.75;5050423;28;20472;-51
2021/04/16 08:24:07;;;;;;;6.63;3.88;;;;;;;20.31;22.54;100038.03;5049305;28;20056;-51
2021/04/16 08:26:37;;;;;;;7.88;4.40;;;;;;;19.89;22.30;100036.13;5032590;28;20381;-49
2021/04/16 08:29:02;;;;;;;;;;;;;;;19.91;22.00;100029.41;5032817;28;20029;-52
2021/04/16 08:31:32;;;;;;;7.95;3.85;;;;;;;20.97;21.60;100026.75;5050103;28;20242;-50
2021/04/16 08:34:04;;;;;;;4.75;3.65;;;;;;;20.88;20.86;100034.56;5032430;28;20029;-51
2021/04/16 08:36:33;;;;;;;5.90;3.75;;;;;;;20.97;21.04;100029.47;5048962;28;20021;-39
2021/04/16 08:39:42;;;;;;;8.18;3.55;;;;;;;20.75;20.73;100020.72;5032437;28;20160;-40
2021/04/16 08:42:15;;;;;;;6.72;4.78;;;;;;;20.69;21.02;100018.00;5048590;28;20049;-39
2021/04/16 08:44:55;;;;;;;5.78;3.80;;;;;;;19.97;21.74;100022.16;5048701;28;20051;-39
2021/04/16 08:47:57;;;;;;;5.47;3.88;;;;;;;19.22;22.63;100027.38;5042672;28;20032;-39
2021/04/16 08:50:29;;;;;;;6.07;3.70;;;;;;;19.06;23.01;100018.31;5024179;28;20497;-39
2021/04/16 08:52:56;;;;;;;5.53;4.03;;;;;;;19.52;22.61;100020.66;5029657;28;20078;-38
2021/04/16 08:55:26;;;;;;;6.93;3.72;;;;;;;19.85;22.62;100008.00;5030130;28;20030;-38
2021/04/16 08:57:53;;;;;;;4.88;3.58;;;;;;;20.61;22.01;100004.97;5027885;28;20025;-38
2021/04/16 09:00:32;;;;;;;6.22;4.03;;;;;;;19.87;23.03;100001.25;5028579;28;20401;-39
2021/04/16 09:02:58;;;;;;;6.90;4.40;;;;;;;18.70;25.01;99990.09;5037029;28;20118;-39
2021/04/16 09:05:29;;;;;;;4.80;3.55;;;;;;;17.69;25.43;100001.81;5038026;28;20076;-39
2021/04/16 09:08:08;;;;;;;6.65;3.70;;;;;;;17.35;25.83;99997.22;5040154;28;20473;-51
2021/04/16 09:10:33;;;;;;;6.20;4.20;;;;;;;18.03;25.30;99991.91;5038809;28;20123;-49
2021/04/16 09:13:00;;;;;;;14.95;8.50;;;;;;;18.79;24.60;99980.50;5038966;28;20106;-51
2021/04/16 09:15:25;;;;;;;19.55;8.98;;;;;;;17.55;25.83;99983.31;5037564;28;20036;-51
2021/04/16 09:17:51;;;;;;;33.22;15.13;;;;;;;17.08;25.79;99975.47;5039594;28;20394;-49
2021/04/16 09:20:35;;;;;;;6.63;4.57;;;;;;;17.33;25.86;99964.34;5039199;28;20119;-51
2021/04/16 09:23:04;;;;;;;7.47;4.55;;;;;;;18.81;23.81;99946.06;5048923;28;20020;-49
2021/04/16 09:25:29;;;;;;;11.18;5.65;;;;;;;18.05;24.28;99951.22;5045178;28;20489;-50
2021/04/16 09:27:55;;;;;;;8.60;4.22;;;;;;;17.92;24.37;99949.72;5046760;28;20056;-51
2021/04/16 09:30:22;;;;;;;13.43;6.28;;;;;;;17.05;25.43;99935.63;5030339;28;20024;-48
2021/04/16 09:32:48;;;;;;;7.82;4.20;;;;;;;18.01;23.70;99923.19;5048045;28;20036;-51
2021/04/16 09:35:19;;;;;;;7.40;3.80;;;;;;;17.66;24.51;99932.34;5049021;28;20108;-49
2021/04/16 09:37:46;;;;;;;7.78;4.22;;;;;;;16.91;24.93;99915.50;5043743;28;20033;-38
2021/04/16 09:40:25;;;;;;;17.80;8.65;;;;;;;16.63;26.49;99903.66;5019344;28;20024;-39
2021/04/16 09:43:09;;;;;;;11.32;4.30;;;;;;;17.75;24.48;99901.25;5037805;28;20091;-53
2021/04/16 09:45:34;;;;;;;7.10;4.00;;;;;;;16.53;25.61;99900.78;5037883;28;20498;-50
2021/04/16 09:48:04;;;;;;;5.82;3.92;;;;;;;17.18;25.14;99911.13;5039460;28;20147;-50
2021/04/16 09:50:42;;;;;;;10.77;4.28;;;;;;;17.24;24.73;99887.00;5037639;28;20048;-50
2021/04/16 09:53:19;;;;;;;6.90;4.07;;;;;;;17.49;24.44;99897.38;5042372;28;20031;-50
2021/04/16 09:55:49;;;;;;;8.43;3.72;;;;;;;16.90;25.51;99895.84;5049225;28;20021;-48
2021/04/16 09:58:35;;;;;;;10.95;4.53;;;;;;;16.33;26.05;99877.00;5049128;28;20037;-51
2021/04/16 10:01:07;;;;;;;6.32;4.00;;;;;;;17.12;25.64;99885.22;5041643;28;20028;-51
2021/04/16 10:03:32;;;;;;;7.93;3.63;;;;;;;18.26;23.91;99879.59;5037726;28;20029;-49
2021/04/16 10:06:14;;;;;;;6.90;3.80;;;;;;;18.41;23.60;99878.97;5038272;28;20062;-49
2021/04/16 10:08:39;;;;;;;8.80;4.25;;;;;;;18.07;24.46;99876.44;5029012;28;20032;-51
2021/04/16 10:11:05;;;;;;;6.05;3.85;;;;;;;19.06;23.98;99875.38;5043792;28;20045;-52
2021/04/16 10:13:36;;;;;;;10.82;4.50;;;;;;;18.14;24.85;99891.34;5028793;28;20405;-51
2021/04/16 10:16:01;;;;;;;7.13;4.25;;;;;;;17.92;25.94;99875.16;5028620;28;20456;-51
2021/04/16 10:18:37;;;;;;;7.00;4.10;;;;;;;18.27;23.92;99865.88;5035279;28;20032;-51
2021/04/16 10:21:22;;;;;;;9.45;4.95;;;;;;;18.47;23.68;99869.91;5027306;28;20021;-52
2021/04/16 10:25:25;;;;;;;5.97;4.05;;;;;;;18.38;24.59;99866.84;5027020;28;20021;-51
2021/04/16 10:51:30;;;;;;;6.40;3.70;;;;;;;18.85;24.01;99851.97;5010856;28;20041;-50
2021/04/16 12:39:49;;;;;;;8.85;4.18;;;;;;;17.73;25.13;99756.19;5050745;28;20396;-52
2021/04/16 12:42:15;;;;;;;6.22;4.13;;;;;;;17.89;24.67;99751.81;5051239;28;20504;-48
2021/04/16 12:44:48;;;;;;;11.68;3.95;;;;;;;17.63;25.82;99748.00;5049751;28;20021;-51
2021/04/16 12:47:24;;;;;;;6.57;4.50;;;;;;;18.26;24.53;99758.41;5033315;28;20472;-48
2021/04/16 12:49:49;;;;;;;7.45;4.03;;;;;;;18.00;25.04;99760.81;5049728;28;20155;-53
2021/04/16 12:52:16;;;;;;;5.88;3.90;;;;;;;17.58;25.25;99761.38;5050951;28;20123;-51
2021/04/16 12:54:44;;;;;;;5.63;3.80;;;;;;;17.88;25.37;99762.84;5050709;28;20036;-52
2021/04/16 12:57:14;;;;;;;8.07;4.20;;;;;;;17.57;25.25;99768.63;5050726;28;20036;-48
2021/04/16 12:59:39;;;;;;;7.15;3.92;;;;;;;17.29;25.35;99761.50;5033455;28;20048;-49
2021/04/16 13:02:05;;;;;;;6.50;4.25;;;;;;;17.56;25.47;99755.41;5032942;28;20449;-50
2021/04/16 13:04:30;;;;;;;8.07;3.75;;;;;;;19.02;24.31;99744.81;5022116;28;20377;-50
2021/04/16 13:06:59;;;;;;;8.55;4.18;;;;;;;18.08;25.51;99746.09;5029283;28;20033;-52
2021/04/16 13:09:24;;;;;;;8.52;4.13;;;;;;;17.18;26.11;99735.53;5034932;28;20135;-52
2021/04/16 13:11:50;;;;;;;6.90;4.05;;;;;;;17.69;25.29;99743.47;5040405;28;20037;-52
2021/04/16 13:14:16;;;;;;;7.13;3.92;;;;;;;18.12;25.07;99728.38;5037750;28;20103;-50
2021/04/16 13:16:42;;;;;;;7.03;4.10;;;;;;;17.57;26.22;99725.59;5042082;28;20126;-49
2021/04/16 13:19:09;;;;;;;8.10;3.78;;;;;;;18.19;25.27;99729.00;5038199;28;20037;-51
2021/04/16 13:21:39;;;;;;;5.75;3.75;;;;;;;19.04;24.06;99726.50;5039645;28;20396;-52
2021/04/16 13:24:06;;;;;;;5.40;3.58;;;;;;;18.35;25.17;99733.47;5040784;28;20029;-51
2021/04/16 13:26:32;;;;;;;5.70;3.80;;;;;;;17.88;25.43;99731.34;5040347;28;20114;-50
2021/04/16 13:28:57;;;;;;;8.43;3.90;;;;;;;18.36;24.41;99734.28;5039215;28;20509;-49
2021/04/16 13:31:25;;;;;;;5.75;3.50;;;;;;;17.93;25.78;99725.19;5039360;28;20040;-51
2021/04/16 13:33:50;;;;;;;7.38;3.72;;;;;;;17.82;26.23;99720.75;5040318;28;20365;-50
2021/04/16 13:36:22;;;;;;;5.95;3.80;;;;;;;17.98;25.63;99722.56;5044914;28;20033;-49
2021/04/16 13:38:48;;;;;;;4.32;3.53;;;;;;;17.89;25.03;99732.97;5047066;28;20025;-52
2021/04/16 13:42:03;;;;;;;9.60;3.80;;;;;;;18.12;25.81;99725.69;5049378;28;20029;-52
2021/04/16 13:44:28;;;;;;;8.95;4.50;;;;;;;18.40;25.13;99734.59;5049331;28;20039;-50
2021/04/16 13:46:54;;;;;;;6.30;3.80;;;;;;;18.03;24.93;99719.13;5049664;28;20029;-52
2021/04/16 13:49:20;;;;;;;7.10;3.78;;;;;;;17.56;25.62;99715.06;5047704;28;20448;-51
2021/04/16 13:51:46;;;;;;;6.10;3.60;;;;;;;18.51;25.36;99720.13;5046565;28;20047;-52